Hauptseite
METAR-TAF:

METAR-TAF

Flughäfen :

Straßburg, Frankreich

Flughafen Straßburg

Breite: 48-33N, Länge: 007-38E, Höhe: 153 m

Beobachtung

Neuester Wetterbericht von vor 16 Minuten, um 13:30 UTC
Wind 18 kt aus Nordost
Temperatur 6°C
Luftfeuchtigkeit 33%
Luftdruck 1016 hPa
Sichtweite 10 km oder mehr
keine Wolken unter 1500 m und keine Kumulonimbus oder Gewitterwolken

METAR: LFST 241330Z AUTO 04018KT CAVOK 06/M09 Q1016 TEMPO 04017G27KT

Zeit: 14:46 (13:46 UTC)

Prognose

Neuester Wetterbericht von vor 2 Stunden und 50 Minuten, um 10:56 UTC
Gültige Prognose vom 24 um 12 UTC bis 25 um 12 UTC
Wind 15 kt aus Nord/Nordost
Sichtweite: 9000 m
Zeitweise
vom 24 um 12 UTC bis 24 um 16 UTC
Wind 17 kt aus Nordost, Böen bis zu 27 kt

TAF: LFST 241056Z 2412/2512 03015KT 9000 NSC TEMPO 2412/2416 04017G27KT

Wetterbeobachtungen und Prognosen von mehr als 4000 Flughäfen (METAR und TAF Bericht).

Die verfügbaren Stationen werden durch gelbe und rote Markierungen auf der Karte dargestellt.

Führen Sie die Maus auf sie, um den Namen der Station zu sehen.

Darauf klicken, um die Beobachtung von Wetterbeobachtungen und Prognosen zu sehen.

Um die Karte zu ändern : klicken Sie auf den grünen Tasten mit einem schwarzen Kreuz Zum Vergrößern, auf den grünen Button mit einem Gedankenstrich zu verkleinern, oder auf die grünen Pfeile für benachbarte Karten.


METAR-TAF: